Aviation Digital Data Service (ADDS)

Output produced by METARs form (2148 UTC 20 June 2019)
found at http://www.aviationweather.gov/metar/data/
 
KSBY 202054Z 22012G21KT 10SM SCT039 BKN047 BKN060 31/23 A2953 RMK AO2 SLP999 T03110233 56017
KSBY 201720Z 2018/2118 23012KT P6SM SCT030 
     FM202100 23012G19KT P6SM VCTS SCT035CB 
     FM202300 23009KT 3SM TSRA BKN025CB OVC100 
     FM210300 22007KT P6SM BKN100 
     FM211300 29015G24KT P6SM BKN045